Agios Georgios I — SX9857 — position and weather

sailwx.info

Track history (hours):
 
Tides and Currents Weather Stations Pressure Air Temp Water Temp Dewpoint Dewpoint Depression Visibility Wind Speed Wind Dir Waves Ship Positions

Agios Georgios I

Last reported at 2015-Feb-23 22:26 UTC. Time now 2015-Feb-28 15:56 UTC.
Position N 37°34' E 025°37'.

Length 59 m; draft 5 m.

Type: Ship (hazmat cat B). MMSI: 239912000.

Date/timePositionNaut miles runAvg speedWind from/ knotsBaromVisibWave heightAir tempDewpointWater temp
2015-Feb-23 22:26N 37°34' E 025°37'7 7.6
2015-Feb-23 21:33N 37°32' E 025°28'8 8.3
2015-Feb-23 20:33N 37°30' E 025°18'2 2.3
2015-Feb-23 19:33N 37°28' E 025°20'0 0.0
2015-Feb-23 18:33N 37°28' E 025°20'0 0.0
2015-Feb-23 17:33N 37°28' E 025°20'0 0.0
2015-Feb-23 16:33N 37°28' E 025°20'0 0.0
2015-Feb-23 15:33N 37°28' E 025°20'0 0.0
2015-Feb-23 14:33N 37°28' E 025°20'1 1.3
2015-Feb-23 13:33N 37°28' E 025°18'8 8.3
2015-Feb-23 12:33N 37°27' E 025°07'9 8.1
2015-Feb-23 11:30N 37°26' E 024°57'0 0.4
2015-Feb-23 10:33N 37°26' E 024°56'0 0.0
2015-Feb-23 09:33N 37°26' E 024°56'0 0.0
2015-Feb-23 08:33N 37°26' E 024°56'0 0.0
2015-Feb-23 07:29N 37°26' E 024°56'0 0.0
2015-Feb-23 06:33N 37°26' E 024°56'0 0.0
2015-Feb-23 05:33N 37°26' E 024°56'0 0.0
2015-Feb-23 04:32N 37°26' E 024°56'0 0.0
2015-Feb-23 03:29N 37°26' E 024°56'0 0.0
2015-Feb-23 02:31N 37°26' E 024°56'0 0.0
2015-Feb-23 01:33N 37°26' E 024°56'4 4.2
2015-Feb-23 00:33N 37°30' E 024°57'8 7.6
2015-Feb-22 23:33N 37°32' E 024°48'46 7.3
2015-Feb-22 17:13N 37°37' E 023°50'5 7.5
2015-Feb-22 16:33N 37°39' E 023°44'8 7.6
2015-Feb-22 15:33N 37°46' E 023°39'8 8.4
2015-Feb-22 14:33N 37°54' E 023°36'4 3.8
2015-Feb-22 13:33N 37°57' E 023°35'0 0.0
2015-Feb-22 12:33N 37°57' E 023°35'0 0.0
2015-Feb-22 11:33N 37°57' E 023°35'0 0.0
2015-Feb-22 10:33N 37°57' E 023°35'0 0.0
2015-Feb-22 09:33N 37°57' E 023°35'0 0.0
2015-Feb-22 08:33N 37°57' E 023°35'0 0.0
2015-Feb-22 07:33N 37°57' E 023°35'0 0.0
2015-Feb-22 06:33N 37°57' E 023°35'0 0.0
2015-Feb-22 05:33N 37°57' E 023°35'5 5.2
2015-Feb-22 04:33N 37°53' E 023°37'9 9.0
2015-Feb-22 03:33N 37°45' E 023°43'8 8.1
2015-Feb-22 02:33N 37°39' E 023°50'45 8.6
2015-Feb-21 21:17N 37°31' E 024°46'9 8.8
2015-Feb-21 20:18N 37°32' E 024°57'7 9.0
2015-Feb-21 19:33N 37°32' E 025°06'3 2.9
2015-Feb-21 18:33N 37°32' E 025°09'0 0.0
2015-Feb-21 17:33N 37°32' E 025°09'0 0.0
2015-Feb-21 16:33N 37°32' E 025°09'0 0.0
2015-Feb-21 15:33N 37°32' E 025°09'8 7.7
2015-Feb-21 14:33N 37°25' E 025°08'9 9.1
2015-Feb-21 13:33N 37°16' E 025°07'10 4.6
2015-Feb-21 11:19N 37°05' E 025°09'0 0.0
2015-Feb-21 10:33N 37°05' E 025°09'0 0.0
2015-Feb-21 09:33N 37°05' E 025°09'0 0.0
2015-Feb-21 08:09N 37°05' E 025°09'0 0.0
2015-Feb-21 07:27N 37°05' E 025°09'0 0.0
2015-Feb-21 06:32N 37°05' E 025°09'0 0.0
2015-Feb-21 05:26N 37°05' E 025°09'0 0.1
2015-Feb-21 04:18N 37°05' E 025°09'0 0.4
2015-Feb-21 03:31N 37°05' E 025°08'0 0.0
2015-Feb-21 01:27N 37°05' E 025°08'0 0.0
2015-Feb-21 00:31N 37°05' E 025°08'0 0.0
2015-Feb-20 23:27N 37°05' E 025°08'0 0.0
2015-Feb-20 22:31N 37°05' E 025°08'0 0.0
2015-Feb-20 21:20N 37°05' E 025°08'0 0.0
2015-Feb-20 20:32N 37°05' E 025°08'0 0.0
2015-Feb-20 18:29N 37°05' E 025°08'0 0.0
2015-Feb-20 17:33N 37°05' E 025°08'5 5.0
2015-Feb-20 16:33N 37°10' E 025°12'6 5.9
2015-Feb-20 15:33N 37°09' E 025°19'3 3.3
2015-Feb-20 14:33N 37°06' E 025°22'0 0.0
2015-Feb-20 13:33N 37°06' E 025°22'0 0.0
2015-Feb-20 12:33N 37°06' E 025°22'0 0.0
2015-Feb-20 11:33N 37°06' E 025°22'0 0.5
2015-Feb-20 10:33N 37°06' E 025°22'0 0.0
2015-Feb-20 09:33N 37°06' E 025°22'0 0.5
2015-Feb-20 08:33N 37°06' E 025°22'0 0.0
2015-Feb-20 07:33N 37°06' E 025°22'0 0.0
2015-Feb-20 06:33N 37°06' E 025°22'0 0.0
2015-Feb-20 05:33N 37°06' E 025°22'1 1.1
2015-Feb-20 04:33N 37°06' E 025°21'2 2.0
2015-Feb-20 03:33N 37°04' E 025°20'0 0.0
2015-Feb-20 02:33N 37°04' E 025°20'0 0.0
2015-Feb-20 01:33N 37°04' E 025°20'0 0.0
2015-Feb-20 00:33N 37°04' E 025°20'0 0.0
2015-Feb-19 23:33N 37°04' E 025°20'0 0.0
2015-Feb-19 22:33N 37°04' E 025°20'0 0.0
2015-Feb-19 21:33N 37°04' E 025°20'0 0.0
2015-Feb-19 20:33N 37°04' E 025°20'0 0.0
2015-Feb-19 19:33N 37°04' E 025°20'0 0.0
2015-Feb-19 18:33N 37°04' E 025°20'0 0.0
2015-Feb-19 17:33N 37°04' E 025°20'0 0.0
2015-Feb-19 16:33N 37°04' E 025°20'0 0.0
2015-Feb-19 15:33N 37°04' E 025°20'3 3.3
2015-Feb-19 14:33N 37°08' E 025°20'9 8.7
2015-Feb-19 13:33N 37°16' E 025°19'9 8.9
2015-Feb-19 12:33N 37°25' E 025°17'3 3.0
2015-Feb-19 11:33N 37°28' E 025°20'0 0.0
2015-Feb-19 10:33N 37°28' E 025°20'0 0.0
2015-Feb-19 09:33N 37°28' E 025°20'0 0.0
2015-Feb-19 08:33N 37°28' E 025°20'0 0.0
2015-Feb-19 07:33N 37°28' E 025°20'0 0.0
2015-Feb-19 06:33N 37°28' E 025°20'4 4.4
2015-Feb-19 05:33N 37°30' E 025°15'7 7.2
2015-Feb-19 04:33N 37°31' E 025°06'9 7.3
2015-Feb-19 03:21N 37°26' E 024°57'1 0.7
2015-Feb-19 02:33N 37°26' E 024°56'0 0.0
2015-Feb-19 01:29N 37°26' E 024°56'0 0.0
2015-Feb-19 00:33N 37°26' E 024°56'0 0.0
2015-Feb-18 23:31N 37°26' E 024°56'0 0.0
2015-Feb-18 22:33N 37°26' E 024°56'0 0.0
2015-Feb-18 21:33N 37°26' E 024°56'0 0.0
2015-Feb-18 20:33N 37°26' E 024°56'0 0.0
2015-Feb-18 19:33N 37°26' E 024°56'0 0.0
2015-Feb-18 18:32N 37°26' E 024°56'0 0.0
2015-Feb-18 17:16N 37°26' E 024°56'0 0.0
2015-Feb-18 16:33N 37°26' E 024°56'0 0.0
2015-Feb-18 15:30N 37°26' E 024°56'0 0.0
2015-Feb-18 14:32N 37°26' E 024°56'0 0.0
2015-Feb-18 13:32N 37°26' E 024°56'0 0.0
2015-Feb-18 12:33N 37°26' E 024°56'0 0.0
2015-Feb-18 11:31N 37°26' E 024°56'11 5.4
2015-Feb-18 09:32N 37°34' E 024°47'45 5.7
2015-Feb-18 01:32N 37°37' E 023°50'7 7.3
2015-Feb-18 00:33N 37°40' E 023°42'8 8.4
2015-Feb-17 23:33N 37°48' E 023°37'7 7.1
2015-Feb-17 22:33N 37°50' E 023°29'8 7.7
2015-Feb-17 21:33N 37°51' E 023°19'8 7.6
2015-Feb-17 20:33N 37°53' E 023°10'3 0.3
2015-Feb-17 07:12N 37°55' E 023°06'1 1.9
2015-Feb-17 06:31N 37°54' E 023°07'10 8.1
2015-Feb-17 05:16N 37°52' E 023°20'4 6.1
2015-Feb-17 04:33N 37°51' E 023°25'6 6.4
2015-Feb-17 03:33N 37°50' E 023°33'6 6.1
2015-Feb-17 02:33N 37°48' E 023°40'7 7.0
2015-Feb-17 01:33N 37°42' E 023°45'16 7.0
2015-Feb-16 23:16N 37°34' E 024°02'35 7.0
2015-Feb-16 18:18N 37°35' E 024°46'14 7.6
2015-Feb-16 16:26N 37°43' E 025°01'  
Track history (hours):
 
Tides and Currents Weather Stations Pressure Air Temp Water Temp Dewpoint Dewpoint Depression Visibility Wind Speed Wind Dir Waves Ship Positions

Agios Georgios I

Last reported at 2015-Feb-23 22:26 UTC. Time now 2015-Feb-28 15:56 UTC.
Position N 37°34' E 025°37'.

Length 59 m; draft 5 m.

Type: Ship (hazmat cat B). MMSI: 239912000.

Date/timePositionNaut miles runAvg speedWind from/ knotsBaromVisibWave heightAir tempDewpointWater temp
2015-Feb-23 22:26N 37°34' E 025°37'7 7.6
2015-Feb-23 21:33N 37°32' E 025°28'8 8.3
2015-Feb-23 20:33N 37°30' E 025°18'2 2.3
2015-Feb-23 19:33N 37°28' E 025°20'0 0.0
2015-Feb-23 18:33N 37°28' E 025°20'0 0.0
2015-Feb-23 17:33N 37°28' E 025°20'0 0.0
2015-Feb-23 16:33N 37°28' E 025°20'0 0.0
2015-Feb-23 15:33N 37°28' E 025°20'0 0.0
2015-Feb-23 14:33N 37°28' E 025°20'1 1.3
2015-Feb-23 13:33N 37°28' E 025°18'8 8.3
2015-Feb-23 12:33N 37°27' E 025°07'9 8.1
2015-Feb-23 11:30N 37°26' E 024°57'0 0.4
2015-Feb-23 10:33N 37°26' E 024°56'0 0.0
2015-Feb-23 09:33N 37°26' E 024°56'0 0.0
2015-Feb-23 08:33N 37°26' E 024°56'0 0.0
2015-Feb-23 07:29N 37°26' E 024°56'0 0.0
2015-Feb-23 06:33N 37°26' E 024°56'0 0.0
2015-Feb-23 05:33N 37°26' E 024°56'0 0.0
2015-Feb-23 04:32N 37°26' E 024°56'0 0.0
2015-Feb-23 03:29N 37°26' E 024°56'0 0.0
2015-Feb-23 02:31N 37°26' E 024°56'0 0.0
2015-Feb-23 01:33N 37°26' E 024°56'4 4.2
2015-Feb-23 00:33N 37°30' E 024°57'8 7.6
2015-Feb-22 23:33N 37°32' E 024°48'46 7.3
2015-Feb-22 17:13N 37°37' E 023°50'5 7.5
2015-Feb-22 16:33N 37°39' E 023°44'8 7.6
2015-Feb-22 15:33N 37°46' E 023°39'8 8.4
2015-Feb-22 14:33N 37°54' E 023°36'4 3.8
2015-Feb-22 13:33N 37°57' E 023°35'0 0.0
2015-Feb-22 12:33N 37°57' E 023°35'0 0.0
2015-Feb-22 11:33N 37°57' E 023°35'0 0.0
2015-Feb-22 10:33N 37°57' E 023°35'0 0.0
2015-Feb-22 09:33N 37°57' E 023°35'0 0.0
2015-Feb-22 08:33N 37°57' E 023°35'0 0.0
2015-Feb-22 07:33N 37°57' E 023°35'0 0.0
2015-Feb-22 06:33N 37°57' E 023°35'0 0.0
2015-Feb-22 05:33N 37°57' E 023°35'5 5.2
2015-Feb-22 04:33N 37°53' E 023°37'9 9.0
2015-Feb-22 03:33N 37°45' E 023°43'8 8.1
2015-Feb-22 02:33N 37°39' E 023°50'45 8.6
2015-Feb-21 21:17N 37°31' E 024°46'9 8.8
2015-Feb-21 20:18N 37°32' E 024°57'7 9.0
2015-Feb-21 19:33N 37°32' E 025°06'3 2.9
2015-Feb-21 18:33N 37°32' E 025°09'0 0.0
2015-Feb-21 17:33N 37°32' E 025°09'0 0.0
2015-Feb-21 16:33N 37°32' E 025°09'0 0.0
2015-Feb-21 15:33N 37°32' E 025°09'8 7.7
2015-Feb-21 14:33N 37°25' E 025°08'9 9.1
2015-Feb-21 13:33N 37°16' E 025°07'10 4.6
2015-Feb-21 11:19N 37°05' E 025°09'0 0.0
2015-Feb-21 10:33N 37°05' E 025°09'0 0.0
2015-Feb-21 09:33N 37°05' E 025°09'0 0.0
2015-Feb-21 08:09N 37°05' E 025°09'0 0.0
2015-Feb-21 07:27N 37°05' E 025°09'0 0.0
2015-Feb-21 06:32N 37°05' E 025°09'0 0.0
2015-Feb-21 05:26N 37°05' E 025°09'0 0.1
2015-Feb-21 04:18N 37°05' E 025°09'0 0.4
2015-Feb-21 03:31N 37°05' E 025°08'0 0.0
2015-Feb-21 01:27N 37°05' E 025°08'0 0.0
2015-Feb-21 00:31N 37°05' E 025°08'0 0.0
2015-Feb-20 23:27N 37°05' E 025°08'0 0.0
2015-Feb-20 22:31N 37°05' E 025°08'0 0.0
2015-Feb-20 21:20N 37°05' E 025°08'0 0.0
2015-Feb-20 20:32N 37°05' E 025°08'0 0.0
2015-Feb-20 18:29N 37°05' E 025°08'0 0.0
2015-Feb-20 17:33N 37°05' E 025°08'5 5.0
2015-Feb-20 16:33N 37°10' E 025°12'6 5.9
2015-Feb-20 15:33N 37°09' E 025°19'3 3.3
2015-Feb-20 14:33N 37°06' E 025°22'0 0.0
2015-Feb-20 13:33N 37°06' E 025°22'0 0.0
2015-Feb-20 12:33N 37°06' E 025°22'0 0.0
2015-Feb-20 11:33N 37°06' E 025°22'0 0.5
2015-Feb-20 10:33N 37°06' E 025°22'0 0.0
2015-Feb-20 09:33N 37°06' E 025°22'0 0.5
2015-Feb-20 08:33N 37°06' E 025°22'0 0.0
2015-Feb-20 07:33N 37°06' E 025°22'0 0.0
2015-Feb-20 06:33N 37°06' E 025°22'0 0.0
2015-Feb-20 05:33N 37°06' E 025°22'1 1.1
2015-Feb-20 04:33N 37°06' E 025°21'2 2.0
2015-Feb-20 03:33N 37°04' E 025°20'0 0.0
2015-Feb-20 02:33N 37°04' E 025°20'0 0.0
2015-Feb-20 01:33N 37°04' E 025°20'0 0.0
2015-Feb-20 00:33N 37°04' E 025°20'0 0.0
2015-Feb-19 23:33N 37°04' E 025°20'0 0.0
2015-Feb-19 22:33N 37°04' E 025°20'0 0.0
2015-Feb-19 21:33N 37°04' E 025°20'0 0.0
2015-Feb-19 20:33N 37°04' E 025°20'0 0.0
2015-Feb-19 19:33N 37°04' E 025°20'0 0.0
2015-Feb-19 18:33N 37°04' E 025°20'0 0.0
2015-Feb-19 17:33N 37°04' E 025°20'0 0.0
2015-Feb-19 16:33N 37°04' E 025°20'0 0.0
2015-Feb-19 15:33N 37°04' E 025°20'3 3.3
2015-Feb-19 14:33N 37°08' E 025°20'9 8.7
2015-Feb-19 13:33N 37°16' E 025°19'9 8.9
2015-Feb-19 12:33N 37°25' E 025°17'3 3.0
2015-Feb-19 11:33N 37°28' E 025°20'0 0.0
2015-Feb-19 10:33N 37°28' E 025°20'0 0.0
2015-Feb-19 09:33N 37°28' E 025°20'0 0.0
2015-Feb-19 08:33N 37°28' E 025°20'0 0.0
2015-Feb-19 07:33N 37°28' E 025°20'0 0.0
2015-Feb-19 06:33N 37°28' E 025°20'4 4.4
2015-Feb-19 05:33N 37°30' E 025°15'7 7.2
2015-Feb-19 04:33N 37°31' E 025°06'9 7.3
2015-Feb-19 03:21N 37°26' E 024°57'1 0.7
2015-Feb-19 02:33N 37°26' E 024°56'0 0.0
2015-Feb-19 01:29N 37°26' E 024°56'0 0.0
2015-Feb-19 00:33N 37°26' E 024°56'0 0.0
2015-Feb-18 23:31N 37°26' E 024°56'0 0.0
2015-Feb-18 22:33N 37°26' E 024°56'0 0.0
2015-Feb-18 21:33N 37°26' E 024°56'0 0.0
2015-Feb-18 20:33N 37°26' E 024°56'0 0.0
2015-Feb-18 19:33N 37°26' E 024°56'0 0.0
2015-Feb-18 18:32N 37°26' E 024°56'0 0.0
2015-Feb-18 17:16N 37°26' E 024°56'0 0.0
2015-Feb-18 16:33N 37°26' E 024°56'0 0.0
2015-Feb-18 15:30N 37°26' E 024°56'0 0.0
2015-Feb-18 14:32N 37°26' E 024°56'0 0.0
2015-Feb-18 13:32N 37°26' E 024°56'0 0.0
2015-Feb-18 12:33N 37°26' E 024°56'0 0.0
2015-Feb-18 11:31N 37°26' E 024°56'11 5.4
2015-Feb-18 09:32N 37°34' E 024°47'45 5.7
2015-Feb-18 01:32N 37°37' E 023°50'7 7.3
2015-Feb-18 00:33N 37°40' E 023°42'8 8.4
2015-Feb-17 23:33N 37°48' E 023°37'7 7.1
2015-Feb-17 22:33N 37°50' E 023°29'8 7.7
2015-Feb-17 21:33N 37°51' E 023°19'8 7.6
2015-Feb-17 20:33N 37°53' E 023°10'3 0.3
2015-Feb-17 07:12N 37°55' E 023°06'1 1.9
2015-Feb-17 06:31N 37°54' E 023°07'10 8.1
2015-Feb-17 05:16N 37°52' E 023°20'4 6.1
2015-Feb-17 04:33N 37°51' E 023°25'6 6.4
2015-Feb-17 03:33N 37°50' E 023°33'6 6.1
2015-Feb-17 02:33N 37°48' E 023°40'7 7.0
2015-Feb-17 01:33N 37°42' E 023°45'16 7.0
2015-Feb-16 23:16N 37°34' E 024°02'35 7.0
2015-Feb-16 18:18N 37°35' E 024°46'14 7.6
2015-Feb-16 16:26N 37°43' E 025°01'  

Dump ship's entire track history